Time,TemperatureF,DewpointF,PressureIn,WindDirection,WindDirectionDegrees,WindSpeedMPH,WindSpeedGustMPH,Humidity,HourlyPrecipIn,Conditions,Clouds,dailyrainin,SolarRadiationWatts/m^2,SoftwareType,DateUTC
2013-09-29 00:03:00,45.0,41.0,-100.00,West,259,6.0,14.0,85,0.00,,,0.08,0.000000,,2013-09-29 05:03:00,
2013-09-29 00:22:00,44.0,40.0,-100.00,WSW,256,5.0,14.0,85,0.00,,,0.08,0.000000,,2013-09-29 05:22:00,
2013-09-29 00:34:00,44.0,40.0,-100.00,WSW,256,5.0,14.0,85,0.00,,,0.08,0.000000,,2013-09-29 05:34:00,
2013-09-29 00:43:00,44.0,40.0,-100.00,WSW,256,5.0,14.0,85,0.00,,,0.08,0.000000,,2013-09-29 05:43:00,
2013-09-29 00:53:00,44.0,40.0,-100.00,WSW,256,5.0,14.0,85,0.00,,,0.08,0.000000,,2013-09-29 05:53:00,
2013-09-29 01:03:00,44.0,40.0,-100.00,WSW,256,5.0,14.0,85,0.00,,,0.08,0.000000,,2013-09-29 06:03:00,
2013-09-29 01:22:00,43.0,41.0,-100.00,WSW,237,4.0,9.0,91,0.00,,,0.08,0.000000,,2013-09-29 06:22:00,
2013-09-29 01:32:00,43.0,41.0,-100.00,WSW,237,4.0,9.0,91,0.00,,,0.08,0.000000,,2013-09-29 06:32:00,
2013-09-29 01:42:00,43.0,41.0,-100.00,WSW,237,4.0,9.0,91,0.00,,,0.08,0.000000,,2013-09-29 06:42:00,
2013-09-29 01:52:00,43.0,41.0,-100.00,WSW,237,4.0,9.0,91,0.00,,,0.08,0.000000,,2013-09-29 06:52:00,
2013-09-29 02:02:00,43.0,41.0,-100.00,WSW,237,4.0,9.0,91,0.00,,,0.08,0.000000,,2013-09-29 07:02:00,
2013-09-29 02:22:00,44.0,42.0,-100.00,SW,221,4.0,9.0,91,0.00,,,0.08,0.000000,,2013-09-29 07:22:00,
2013-09-29 02:32:00,44.0,42.0,-100.00,SW,221,4.0,9.0,91,0.00,,,0.08,0.000000,,2013-09-29 07:32:00,
2013-09-29 02:43:00,44.0,42.0,-100.00,SW,221,4.0,9.0,91,0.00,,,0.08,0.000000,,2013-09-29 07:43:00,
2013-09-29 02:52:00,44.0,42.0,-100.00,SW,221,4.0,9.0,91,0.00,,,0.08,0.000000,,2013-09-29 07:52:00,
2013-09-29 03:02:00,44.0,42.0,-100.00,SW,221,4.0,9.0,91,0.00,,,0.08,0.000000,,2013-09-29 08:02:00,
2013-09-29 03:22:00,44.0,42.0,-100.00,SSW,213,4.0,7.0,92,0.00,,,0.08,0.000000,,2013-09-29 08:22:00,
2013-09-29 03:32:00,44.0,42.0,-100.00,SSW,213,4.0,7.0,92,0.00,,,0.08,0.000000,,2013-09-29 08:32:00,
2013-09-29 03:42:00,44.0,42.0,-100.00,SSW,213,4.0,7.0,92,0.00,,,0.08,0.000000,,2013-09-29 08:42:00,
2013-09-29 03:52:00,44.0,42.0,-100.00,SSW,213,4.0,7.0,92,0.00,,,0.08,0.000000,,2013-09-29 08:52:00,
2013-09-29 04:02:00,44.0,42.0,-100.00,SSW,213,4.0,7.0,92,0.00,,,0.08,0.000000,,2013-09-29 09:02:00,
2013-09-29 04:23:00,45.0,42.0,-100.00,SW,216,5.0,9.0,90,0.00,,,0.08,0.000000,,2013-09-29 09:23:00,
2013-09-29 04:33:00,45.0,42.0,-100.00,SW,216,5.0,9.0,90,0.00,,,0.08,0.000000,,2013-09-29 09:33:00,
2013-09-29 04:43:00,45.0,42.0,-100.00,SW,216,5.0,9.0,90,0.00,,,0.08,0.000000,,2013-09-29 09:43:00,
2013-09-29 04:53:00,45.0,42.0,-100.00,SW,216,5.0,9.0,90,0.00,,,0.08,0.000000,,2013-09-29 09:53:00,
2013-09-29 05:03:00,45.0,42.0,-100.00,SW,216,5.0,9.0,90,0.00,,,0.08,0.000000,,2013-09-29 10:03:00,
2013-09-29 05:43:00,45.0,42.0,-100.00,SW,225,5.0,9.0,90,0.00,,,0.08,0.000000,,2013-09-29 10:43:00,
2013-09-29 05:53:00,45.0,42.0,-100.00,SW,225,5.0,9.0,90,0.00,,,0.08,0.000000,,2013-09-29 10:53:00,
2013-09-29 06:03:00,45.0,42.0,-100.00,SW,225,5.0,9.0,90,0.00,,,0.08,0.000000,,2013-09-29 11:03:00,
2013-09-29 06:42:00,44.0,42.0,-100.00,SW,228,5.0,9.0,91,0.00,,,0.08,0.000000,,2013-09-29 11:42:00,
2013-09-29 06:52:00,44.0,42.0,-100.00,SW,228,5.0,9.0,91,0.00,,,0.08,0.000000,,2013-09-29 11:52:00,
2013-09-29 07:01:00,44.0,42.0,-100.00,SW,228,5.0,9.0,91,0.00,,,0.08,0.000000,,2013-09-29 12:01:00,
2013-09-29 07:42:00,43.0,41.0,-100.00,SW,233,4.0,10.0,92,0.00,,,0.08,0.000000,,2013-09-29 12:42:00,
2013-09-29 07:52:00,43.0,41.0,-100.00,SW,233,4.0,10.0,92,0.00,,,0.08,0.000000,,2013-09-29 12:52:00,
2013-09-29 08:02:00,43.0,41.0,-100.00,SW,233,4.0,10.0,92,0.00,,,0.08,0.000000,,2013-09-29 13:02:00,
2013-09-29 08:42:00,45.0,43.0,-100.00,SSW,209,4.0,8.0,91,0.00,,,0.08,52.000000,,2013-09-29 13:42:00,
2013-09-29 08:53:00,45.0,43.0,-100.00,SSW,209,4.0,8.0,91,0.00,,,0.08,52.000000,,2013-09-29 13:53:00,
2013-09-29 09:02:00,45.0,43.0,-100.00,SSW,209,4.0,8.0,91,0.00,,,0.08,52.000000,,2013-09-29 14:02:00,
2013-09-29 09:43:00,51.0,46.0,-100.00,SSW,213,4.0,9.0,84,0.00,,,0.08,159.000000,,2013-09-29 14:43:00,
2013-09-29 09:52:00,51.0,46.0,-100.00,SSW,213,4.0,9.0,84,0.00,,,0.08,159.000000,,2013-09-29 14:52:00,
2013-09-29 10:02:00,51.0,46.0,-100.00,SSW,213,4.0,9.0,84,0.00,,,0.08,159.000000,,2013-09-29 15:02:00,
2013-09-29 10:04:00,57.0,47.0,-100.00,SW,216,5.0,10.0,68,0.00,,,0.08,417.000000,,2013-09-29 15:04:00,
2013-09-29 10:45:00,57.0,47.0,-100.00,SW,216,5.0,10.0,68,0.00,,,0.08,417.000000,,2013-09-29 15:45:00,
2013-09-29 10:55:00,57.0,47.0,-100.00,SW,216,5.0,10.0,68,0.00,,,0.08,417.000000,,2013-09-29 15:55:00,
2013-09-29 11:24:00,62.0,46.0,-100.00,SSW,212,5.0,10.0,55,0.00,,,0.08,581.000000,,2013-09-29 16:24:00,
2013-09-29 11:33:00,62.0,46.0,-100.00,SSW,212,5.0,10.0,55,0.00,,,0.08,581.000000,,2013-09-29 16:33:00,
2013-09-29 11:44:00,62.0,46.0,-100.00,SSW,212,5.0,10.0,55,0.00,,,0.08,581.000000,,2013-09-29 16:44:00,
2013-09-29 11:54:00,62.0,46.0,-100.00,SSW,212,5.0,10.0,55,0.00,,,0.08,581.000000,,2013-09-29 16:54:00,
2013-09-29 12:03:00,62.0,46.0,-100.00,SSW,212,5.0,10.0,55,0.00,,,0.08,581.000000,,2013-09-29 17:03:00,
2013-09-29 12:24:00,65.0,43.0,-100.00,SW,216,6.0,11.0,45,0.00,,,0.02,690.000000,,2013-09-29 17:24:00,
2013-09-29 12:34:00,65.0,43.0,-100.00,SW,216,6.0,11.0,45,0.00,,,0.02,690.000000,,2013-09-29 17:34:00,
2013-09-29 12:43:00,65.0,43.0,-100.00,SW,216,6.0,11.0,45,0.00,,,0.02,690.000000,,2013-09-29 17:43:00,
2013-09-29 12:52:00,65.0,43.0,-100.00,SW,216,6.0,11.0,45,0.00,,,0.02,690.000000,,2013-09-29 17:52:00,
2013-09-29 13:02:00,65.0,43.0,-100.00,SW,216,6.0,11.0,45,0.00,,,0.02,690.000000,,2013-09-29 18:02:00,
2013-09-29 13:42:00,67.0,43.0,-100.00,SSW,198,8.0,14.0,42,0.00,,,0.02,740.000000,,2013-09-29 18:42:00,
2013-09-29 13:52:00,67.0,43.0,-100.00,SSW,198,8.0,14.0,42,0.00,,,0.02,740.000000,,2013-09-29 18:52:00,
2013-09-29 14:02:00,67.0,43.0,-100.00,SSW,198,8.0,14.0,42,0.00,,,0.02,740.000000,,2013-09-29 19:02:00,
2013-09-29 14:42:00,69.0,41.0,-100.00,WSW,239,6.0,14.0,36,0.00,,,0.02,603.000000,,2013-09-29 19:42:00,
2013-09-29 14:52:00,69.0,41.0,-100.00,WSW,239,6.0,14.0,36,0.00,,,0.02,603.000000,,2013-09-29 19:52:00,
2013-09-29 15:02:00,69.0,41.0,-100.00,WSW,239,6.0,14.0,36,0.00,,,0.02,603.000000,,2013-09-29 20:02:00,
2013-09-29 15:43:00,69.0,42.0,-100.00,SSW,202,7.0,16.0,37,0.00,,,0.00,72.000000,,2013-09-29 20:43:00,
2013-09-29 15:52:00,69.0,42.0,-100.00,SSW,202,7.0,16.0,37,0.00,,,0.00,72.000000,,2013-09-29 20:52:00,
2013-09-29 16:02:00,69.0,42.0,-100.00,SSW,202,7.0,16.0,37,0.00,,,0.00,72.000000,,2013-09-29 21:02:00,
2013-09-29 16:04:00,71.0,42.0,-100.00,SW,214,7.0,13.0,35,0.00,,,0.00,336.000000,,2013-09-29 21:04:00,
2013-09-29 16:44:00,71.0,42.0,-100.00,SW,214,7.0,13.0,35,0.00,,,0.00,336.000000,,2013-09-29 21:44:00,
2013-09-29 16:55:00,71.0,42.0,-100.00,SW,214,7.0,13.0,35,0.00,,,0.00,336.000000,,2013-09-29 21:55:00,
2013-09-29 17:43:00,69.0,40.0,-100.00,SSW,205,6.0,13.0,35,0.00,,,0.00,351.000000,,2013-09-29 22:43:00,
2013-09-29 17:53:00,69.0,40.0,-100.00,SSW,205,6.0,13.0,35,0.00,,,0.00,351.000000,,2013-09-29 22:53:00,
2013-09-29 18:03:00,69.0,40.0,-100.00,SSW,205,6.0,13.0,35,0.00,,,0.00,351.000000,,2013-09-29 23:03:00,
2013-09-29 18:43:00,64.0,41.0,-100.00,SSE,161,4.0,10.0,43,0.00,,,0.00,97.000000,,2013-09-29 23:43:00,
2013-09-29 18:53:00,64.0,41.0,-100.00,SSE,161,4.0,10.0,43,0.00,,,0.00,97.000000,,2013-09-29 23:53:00,
2013-09-29 19:01:00,64.0,41.0,-100.00,SSE,161,4.0,10.0,43,0.00,,,0.00,97.000000,,2013-09-30 00:01:00,
2013-09-29 19:42:00,60.0,42.0,-100.00,SSE,163,5.0,10.0,52,0.00,,,0.00,24.000000,,2013-09-30 00:42:00,
2013-09-29 19:52:00,60.0,42.0,-100.00,SSE,163,5.0,10.0,52,0.00,,,0.00,24.000000,,2013-09-30 00:52:00,
2013-09-29 20:02:00,60.0,42.0,-100.00,SSE,163,5.0,10.0,52,0.00,,,0.00,24.000000,,2013-09-30 01:02:00,
2013-09-29 20:42:00,59.0,44.0,-100.00,SSE,160,6.0,11.0,58,0.00,,,0.00,0.000000,,2013-09-30 01:42:00,
2013-09-29 20:52:00,59.0,44.0,-100.00,SSE,160,6.0,11.0,58,0.00,,,0.00,0.000000,,2013-09-30 01:52:00,
2013-09-29 21:02:00,59.0,44.0,-100.00,SSE,160,6.0,11.0,58,0.00,,,0.00,0.000000,,2013-09-30 02:02:00,
2013-09-29 21:22:00,58.0,44.0,-100.00,SSE,158,6.0,10.0,59,0.00,,,0.00,0.000000,,2013-09-30 02:22:00,
2013-09-29 21:32:00,58.0,44.0,-100.00,SSE,158,6.0,10.0,59,0.00,,,0.00,0.000000,,2013-09-30 02:32:00,
2013-09-29 21:42:00,58.0,44.0,-100.00,SSE,158,6.0,10.0,59,0.00,,,0.00,0.000000,,2013-09-30 02:42:00,
2013-09-29 21:52:00,58.0,44.0,-100.00,SSE,158,6.0,10.0,59,0.00,,,0.00,0.000000,,2013-09-30 02:52:00,
2013-09-29 22:02:00,58.0,44.0,-100.00,SSE,158,6.0,10.0,59,0.00,,,0.00,0.000000,,2013-09-30 03:02:00,
2013-09-29 22:04:00,57.0,43.0,-100.00,SSE,160,6.0,11.0,59,0.00,,,0.00,0.000000,,2013-09-30 03:04:00,
2013-09-29 22:45:00,57.0,43.0,-100.00,SSE,160,6.0,11.0,59,0.00,,,0.00,0.000000,,2013-09-30 03:45:00,
2013-09-29 22:55:00,57.0,43.0,-100.00,SSE,160,6.0,11.0,59,0.00,,,0.00,0.000000,,2013-09-30 03:55:00,
2013-09-29 23:25:00,57.0,44.0,-100.00,SSE,147,7.0,13.0,62,0.00,,,0.00,0.000000,,2013-09-30 04:25:00,
2013-09-29 23:33:00,57.0,44.0,-100.00,SSE,147,7.0,13.0,62,0.00,,,0.00,0.000000,,2013-09-30 04:33:00,
2013-09-29 23:44:00,57.0,44.0,-100.00,SSE,147,7.0,13.0,62,0.00,,,0.00,0.000000,,2013-09-30 04:44:00,
2013-09-29 23:53:00,57.0,44.0,-100.00,SSE,147,7.0,13.0,62,0.00,,,0.00,0.000000,,2013-09-30 04:53:00,